Share

Current weather conditions updated 6 minutes ago

Overcast
Overcast
48.8 °F
Feels Like 45 °F
N
10.0
Wind Variable Wind from South
Gusts 11.0 mph
Sunrise 7:03 AM
Sunset 8:50 PM
Moon Waning Gibbous

Today is forecast to be Much Warmer than yesterday. Periods of light rain tonight.

Pressure 30.02 in
Visibility 10.0 miles
Clouds Overcast 7000 ft
Windchill 45 °F
Dew Point 28 °F
Humidity 45%
Rainfall 0.00 in
Snow Depth Not available.
UV 3 out of 16
Pollen 9.70 out of 12
Air Quality Not available.
Flu Activity Sporadic
METAR KIWD 191835Z AUTO 17018G31KT 10SM OVC070 10/M03 A3002 RMK AO1

More Conditions Fewer Conditions

Pressure 30.02 in
Visibility 10.0 miles
Clouds Overcast 7000 ft
Windchill 45 °F
Dew Point 28 °F
Humidity 45%
Rainfall 0.00 in
Snow Depth Not available.
UV 3 out of 16
Pollen 9.70 out of 12
Air Quality Not available.
Flu Activity Sporadic
METAR KIWD 191835Z AUTO 17018G31KT 10SM OVC070 10/M03 A3002 RMK AO1

More Conditions Fewer Conditions

10-Day Weather Forecast

Almanac

Astronomy

Apr. 19, 2014 Rise Set
Actual Time 7:03 AM EDT 8:50 PM EDT
Civil Twilight 6:31 AM EDT 9:23 PM EDT
Nautical Twilight 5:52 AM EDT 10:02 PM EDT
Astronomical Twilight 5:09 AM EDT 10:45 PM EDT
Moon 12:43 AM EDT 10:13 AM EDT
Length of Visible Light 14h 51m
Length of Day
13h 47m
Tomorrow will be 3m 6s longer.
Waning Gibbous, 77% of the Moon is Illuminated
Today
Waning Gibbous
Apr 22
Last Quarter
Apr 29
New
May 6
First Quarter
May 14
Full

Today's Extremes

State Highs State Lows

Community

  • Piriapolis
    Piriapolis
  • A Glorious Morning
    A Glorious Morning
  • Tender Rays Of Hope
    Tender Rays Of Hope
  • Bleeding Hearts
    Bleeding Hearts
  • Sunset Silhouettes
    Sunset Silhouettes

WunderPhotos

Upload Photos

1,702,840 photos uploaded!

WunderBlogs® & News

Nearby

Snow Depth

Station Depth Elevation
No new snow has been reported.

Coastal Water Temperatures

Place Temperature
No Stations Reporting

Earthquake Activity

City Distance Mag. Time & Date
No recent earthquake activity has been reported nearby.
Minimum magnitude displayed is 2.5.

Nearby Weather Stations

Station Location Temp. Windchill Dew Point Humidity Wind Precip. Elev Updated Type
MesoWest Rockland ESS , Rockland, MI 43 °F 34 °F 26 °F 50% SE  at  21 mph 0.00 in / hr 1026 ft 1:45 PM EDT MADIS
MesoWest Trout Creek ESS , Kenton, MI 46 °F 41 °F 24 °F 42% SSE  at  11 mph 0.00 in / hr 1521 ft 1:45 PM EDT MADIS
Mountain View Lodges, Silver City, MI / , Ontonagon, MI 48.8 °F 45 °F 28 °F 45% South  at  10.0 mph 0.00 in / hr 587 ft 2:50 PM EDT Normal
RAWS WAKEFIELD MI, Wakefield, MI 48 °F 43 °F 22 °F 36% South  at  12 mph 0.00 in / hr 1200 ft 1:01 PM CDT MADIS
RAWS KENTON MI, Nisula, MI 47 °F 42 °F 23 °F 39% SSE  at  11 mph 0.00 in / hr 1262 ft 1:56 PM EDT MADIS

Show More Stations Show Fewer Stations

What do you think?

We're not finished. Please let us know what you like, what you don't like, and what you are still missing.